createdAt,value
2018-09-05T00:01:59.446Z,101158.29
2018-09-05T00:04:29.526Z,101157.18
2018-09-05T00:06:59.636Z,101152.98
2018-09-05T00:09:29.925Z,101157.64
2018-09-05T00:12:00.020Z,101158.72
2018-09-05T00:14:30.133Z,101155.78
2018-09-05T00:17:00.256Z,101155.84
2018-09-05T00:19:30.437Z,101160.55
2018-09-05T00:22:00.495Z,101155.91
2018-09-05T00:24:30.646Z,101160.02
2018-09-05T00:27:00.796Z,101163.94
2018-09-05T00:29:30.983Z,101160.51
2018-09-05T00:32:01.139Z,101162.07
2018-09-05T00:34:31.299Z,101162.27
2018-09-05T00:37:01.458Z,101156.20
2018-09-05T00:39:31.619Z,101156.39
2018-09-05T00:42:01.810Z,101162.00
2018-09-05T00:44:31.935Z,101158.69
2018-09-05T00:47:02.035Z,101157.12
2018-09-05T00:49:32.330Z,101153.38
2018-09-05T00:52:02.472Z,101154.02
2018-09-05T00:54:32.640Z,101150.77
2018-09-05T00:57:02.745Z,101157.80
2018-09-05T00:59:32.949Z,101155.52
2018-09-05T01:02:03.098Z,101154.19
2018-09-05T01:04:33.229Z,101152.84
2018-09-05T01:07:18.739Z,101148.02
2018-09-05T01:09:48.917Z,101153.89
2018-09-05T01:12:20.204Z,101147.20
2018-09-05T01:14:51.483Z,101151.73
2018-09-05T01:17:21.891Z,101146.74
2018-09-05T01:19:52.077Z,101150.75
2018-09-05T01:22:22.163Z,101150.06
2018-09-05T01:24:52.311Z,101149.67
2018-09-05T01:27:22.438Z,101149.80
2018-09-05T01:29:52.542Z,101144.82
2018-09-05T01:32:22.623Z,101137.88
2018-09-05T01:34:52.812Z,101146.39
2018-09-05T01:37:22.904Z,101144.56
2018-09-05T01:39:53.818Z,101147.13
2018-09-05T01:42:23.921Z,101139.31
2018-09-05T01:44:54.011Z,101145.37
2018-09-05T01:47:24.144Z,101146.20
2018-09-05T01:49:54.304Z,101148.35
2018-09-05T01:52:24.390Z,101142.61
2018-09-05T01:54:54.518Z,101144.53
2018-09-05T01:57:24.616Z,101146.00
2018-09-05T01:59:54.788Z,101138.48
2018-09-05T02:02:25.995Z,101149.49
2018-09-05T02:04:56.664Z,101145.97
2018-09-05T02:07:26.906Z,101148.67
2018-09-05T02:09:57.080Z,101144.18
2018-09-05T02:12:27.200Z,101140.43
2018-09-05T02:14:57.407Z,101144.53
2018-09-05T02:17:27.538Z,101144.83
2018-09-05T02:19:58.018Z,101144.44
2018-09-05T02:22:28.196Z,101141.86
2018-09-05T02:24:58.330Z,101147.86
2018-09-05T02:27:28.470Z,101149.36
2018-09-05T02:29:58.755Z,101150.30
2018-09-05T02:32:28.867Z,101148.61
2018-09-05T02:34:59.037Z,101158.66
2018-09-05T02:37:29.146Z,101146.27
2018-09-05T02:39:59.277Z,101150.63
2018-09-05T02:42:29.393Z,101146.00
2018-09-05T02:44:59.550Z,101153.77
2018-09-05T02:47:29.678Z,101148.28
2018-09-05T02:49:59.828Z,101149.10
2018-09-05T02:52:30.079Z,101148.71
2018-09-05T02:55:00.214Z,101148.28
2018-09-05T02:57:30.351Z,101143.75
2018-09-05T03:00:00.601Z,101145.41
2018-09-05T03:02:30.741Z,101145.56
2018-09-05T03:05:00.888Z,101148.67
2018-09-05T03:07:31.005Z,101146.20
2018-09-05T03:10:01.173Z,101149.79
2018-09-05T03:12:31.260Z,101149.31
2018-09-05T03:15:01.370Z,101148.08
2018-09-05T03:17:31.569Z,101150.70
2018-09-05T03:20:01.741Z,101146.97
2018-09-05T03:22:31.809Z,101146.27
2018-09-05T03:25:01.892Z,101147.83
2018-09-05T03:27:32.012Z,101144.59
2018-09-05T03:30:02.115Z,101144.16
2018-09-05T03:32:32.281Z,101148.96
2018-09-05T03:35:02.410Z,101144.47
2018-09-05T03:37:32.474Z,101151.63
2018-09-05T03:40:02.598Z,101147.72
2018-09-05T03:42:32.717Z,101146.56
2018-09-05T03:45:02.884Z,101146.20
2018-09-05T03:47:33.020Z,101153.72
2018-09-05T03:50:03.191Z,101157.73
2018-09-05T03:52:33.257Z,101163.92
2018-09-05T03:55:03.384Z,101158.80
2018-09-05T03:57:33.497Z,101158.49
2018-09-05T04:00:03.800Z,101158.60
2018-09-05T04:02:33.926Z,101158.97
2018-09-05T04:05:04.191Z,101159.67
2018-09-05T04:07:34.388Z,101163.31
2018-09-05T04:10:04.692Z,101164.80
2018-09-05T04:12:38.762Z,101159.73
2018-09-05T04:15:09.483Z,101164.28
2018-09-05T04:17:39.835Z,101160.25
2018-09-05T04:20:10.567Z,101153.72
2018-09-05T04:22:40.637Z,101158.06
2018-09-05T04:25:10.758Z,101153.00
2018-09-05T04:27:40.926Z,101151.53
2018-09-05T04:30:11.105Z,101155.00
2018-09-05T04:32:41.204Z,101153.61
2018-09-05T04:35:11.377Z,101147.49
2018-09-05T04:37:41.423Z,101154.22
2018-09-05T04:40:11.576Z,101147.03
2018-09-05T04:42:41.774Z,101155.89
2018-09-05T04:45:11.923Z,101159.00
2018-09-05T04:47:41.997Z,101155.69
2018-09-05T04:50:12.320Z,101154.75
2018-09-05T04:52:42.563Z,101162.77
2018-09-05T04:55:12.686Z,101166.78
2018-09-05T04:57:42.872Z,101162.91
2018-09-05T05:00:13.048Z,101154.92
2018-09-05T05:02:43.176Z,101164.91
2018-09-05T05:05:13.332Z,101167.77
2018-09-05T05:07:43.410Z,101168.62
2018-09-05T05:10:13.516Z,101170.44
2018-09-05T05:12:43.618Z,101179.19
2018-09-05T05:15:13.751Z,101178.06
2018-09-05T05:17:43.854Z,101176.31
2018-09-05T05:20:13.984Z,101176.78
2018-09-05T05:22:44.049Z,101189.50
2018-09-05T05:25:14.169Z,101194.16
2018-09-05T05:27:44.286Z,101186.16
2018-09-05T05:30:14.446Z,101192.87
2018-09-05T05:32:44.652Z,101189.86
2018-09-05T05:35:14.746Z,101185.55
2018-09-05T05:37:44.845Z,101190.08
2018-09-05T05:40:14.968Z,101189.05
2018-09-05T05:42:45.081Z,101194.72
2018-09-05T05:45:15.235Z,101200.63
2018-09-05T05:47:45.331Z,101201.06
2018-09-05T05:50:15.508Z,101196.57
2018-09-05T05:52:45.586Z,101205.55
2018-09-05T05:55:15.730Z,101204.45
2018-09-05T05:57:45.815Z,101203.47
2018-09-05T06:00:16.029Z,101200.12
2018-09-05T06:02:46.186Z,101202.34
2018-09-05T06:05:16.375Z,101201.36
2018-09-05T06:07:46.518Z,101203.49
2018-09-05T06:10:16.699Z,101207.36
2018-09-05T06:12:49.939Z,101208.35
2018-09-05T06:15:20.127Z,101202.51
2018-09-05T06:17:50.224Z,101203.00
2018-09-05T06:20:20.392Z,101200.27
2018-09-05T06:22:50.525Z,101209.08
2018-09-05T06:25:20.634Z,101207.45
2018-09-05T06:27:50.751Z,101209.20
2018-09-05T06:30:20.941Z,101206.01
2018-09-05T06:32:51.100Z,101203.61
2018-09-05T06:35:21.235Z,101206.66
2018-09-05T06:37:51.304Z,101212.02
2018-09-05T06:40:21.433Z,101206.28
2018-09-05T06:42:51.570Z,101213.98
2018-09-05T06:45:21.848Z,101213.35
2018-09-05T06:47:51.939Z,101207.45
2018-09-05T06:50:22.118Z,101209.00
2018-09-05T06:52:52.186Z,101206.25
2018-09-05T06:55:22.361Z,101206.97
2018-09-05T06:57:52.527Z,101205.77
2018-09-05T07:00:22.738Z,101207.98
2018-09-05T07:02:52.939Z,101209.72
2018-09-05T07:05:23.178Z,101206.66
2018-09-05T07:07:53.353Z,101206.76
2018-09-05T07:10:23.486Z,101209.91
2018-09-05T07:12:53.543Z,101206.92
2018-09-05T07:15:23.676Z,101212.05
2018-09-05T07:17:54.543Z,101205.75
2018-09-05T07:20:24.715Z,101211.31
2018-09-05T07:22:54.840Z,101206.25
2018-09-05T07:25:24.970Z,101203.55
2018-09-05T07:27:55.018Z,101205.39
2018-09-05T07:30:25.260Z,101204.33
2018-09-05T07:32:55.390Z,101206.81
2018-09-05T07:35:25.668Z,101204.25
2018-09-05T07:37:55.786Z,101207.95
2018-09-05T07:40:25.933Z,101205.42
2018-09-05T07:42:56.069Z,101211.31
2018-09-05T07:45:26.300Z,101211.73
2018-09-05T07:47:58.164Z,101209.45
2018-09-05T07:50:28.360Z,101206.20
2018-09-05T07:52:58.520Z,101205.79
2018-09-05T07:55:31.816Z,101203.91
2018-09-05T07:58:02.019Z,101208.99
2018-09-05T08:00:32.145Z,101211.92
2018-09-05T08:03:02.417Z,101214.38
2018-09-05T08:05:32.616Z,101205.16
2018-09-05T08:08:02.860Z,101202.07
2018-09-05T08:10:32.945Z,101209.43
2018-09-05T08:13:03.285Z,101205.02
2018-09-05T08:15:33.479Z,101201.34
2018-09-05T08:18:03.715Z,101199.86
2018-09-05T08:20:33.907Z,101202.44
2018-09-05T08:23:04.023Z,101202.70
2018-09-05T08:25:34.164Z,101200.38
2018-09-05T08:28:04.408Z,101198.02
2018-09-05T08:30:34.561Z,101178.97
2018-09-05T08:33:04.686Z,101188.17
2018-09-05T08:35:34.986Z,101185.45
2018-09-05T08:38:05.426Z,101185.71
2018-09-05T08:40:35.617Z,101188.33
2018-09-05T08:43:05.758Z,101184.22
2018-09-05T08:45:36.129Z,101187.52
2018-09-05T08:48:06.209Z,101192.21
2018-09-05T08:50:36.381Z,101177.55
2018-09-05T08:53:06.519Z,101181.79
2018-09-05T08:55:36.736Z,101186.16
2018-09-05T08:58:06.943Z,101183.81
2018-09-05T09:00:37.172Z,101182.87
2018-09-05T09:03:07.463Z,101177.41
2018-09-05T09:05:37.647Z,101174.01
2018-09-05T09:08:07.822Z,101172.73
2018-09-05T09:10:38.009Z,101167.72
2018-09-05T09:13:08.170Z,101171.53
2018-09-05T09:15:38.314Z,101172.08
2018-09-05T09:18:08.491Z,101173.22
2018-09-05T09:20:38.633Z,101176.94
2018-09-05T09:23:08.745Z,101176.28
2018-09-05T09:25:38.900Z,101173.72
2018-09-05T09:28:09.061Z,101169.11
2018-09-05T09:30:39.253Z,101171.19
2018-09-05T09:33:10.050Z,101170.50
2018-09-05T09:35:40.350Z,101170.55
2018-09-05T09:38:10.443Z,101170.70
2018-09-05T09:40:40.576Z,101176.38
2018-09-05T09:43:10.676Z,101170.25
2018-09-05T09:45:40.889Z,101168.04
2018-09-05T09:48:11.057Z,101164.48
2018-09-05T09:50:41.240Z,101162.02
2018-09-05T09:53:11.416Z,101168.80
2018-09-05T09:55:41.557Z,101159.81
2018-09-05T09:58:11.729Z,101157.49
2018-09-05T10:00:46.854Z,101153.41
2018-09-05T10:03:22.091Z,101149.09
2018-09-05T10:05:57.173Z,101151.46
2018-09-05T10:08:33.847Z,101149.70
2018-09-05T10:11:09.149Z,101145.14
2018-09-05T10:13:44.417Z,101144.80
2018-09-05T10:16:19.545Z,101140.72
2018-09-05T10:18:51.822Z,101137.22
2018-09-05T10:21:22.194Z,101135.70
2018-09-05T10:23:52.398Z,101131.38
2018-09-05T10:26:22.592Z,101133.31
2018-09-05T10:28:52.666Z,101132.73
2018-09-05T10:31:22.853Z,101134.41
2018-09-05T10:33:52.951Z,101129.45
2018-09-05T10:36:23.107Z,101127.41
2018-09-05T10:38:53.185Z,101131.32
2018-09-05T10:41:23.317Z,101125.06
2018-09-05T10:43:53.473Z,101125.48
2018-09-05T10:46:23.579Z,101118.96
2018-09-05T10:48:53.665Z,101118.34
2018-09-05T10:51:27.799Z,101120.47
2018-09-05T10:53:57.896Z,101117.82
2018-09-05T10:56:28.019Z,101115.97
2018-09-05T10:58:58.163Z,101114.27
2018-09-05T11:01:28.431Z,101113.61
2018-09-05T11:03:58.727Z,101111.69
2018-09-05T11:06:28.839Z,101110.80
2018-09-05T11:08:58.929Z,101107.73
2018-09-05T11:11:29.150Z,101113.84
2018-09-05T11:13:59.388Z,101104.70
2018-09-05T11:16:29.617Z,101098.89
2018-09-05T11:18:59.704Z,101094.33
2018-09-05T11:21:29.908Z,101093.59
2018-09-05T11:24:00.004Z,101091.34
2018-09-05T11:26:30.192Z,101089.92
2018-09-05T11:29:00.736Z,101091.41
2018-09-05T11:31:30.879Z,101090.67
2018-09-05T11:34:01.011Z,101088.44
2018-09-05T11:36:31.137Z,101088.05
2018-09-05T11:39:01.314Z,101081.06
2018-09-05T11:41:31.445Z,101088.83
2018-09-05T11:44:01.582Z,101081.20
2018-09-05T11:46:31.740Z,101083.90
2018-09-05T11:49:01.828Z,101078.69
2018-09-05T11:51:32.040Z,101076.53
2018-09-05T11:54:02.156Z,101069.95
2018-09-05T11:56:32.276Z,101076.89
2018-09-05T11:59:02.418Z,101074.13
2018-09-05T12:01:32.564Z,101076.80
2018-09-05T12:04:02.682Z,101077.41
2018-09-05T12:06:32.822Z,101074.67
2018-09-05T12:09:03.123Z,101072.33
2018-09-05T12:11:33.303Z,101070.81
2018-09-05T12:14:03.343Z,101072.56
2018-09-05T12:16:35.334Z,101068.88
2018-09-05T12:19:06.287Z,101066.52
2018-09-05T12:21:36.656Z,101066.98
2018-09-05T12:24:07.002Z,101062.65
2018-09-05T12:26:39.659Z,101068.25
2018-09-05T12:29:11.865Z,101067.40
2018-09-05T12:31:42.726Z,101065.64
2018-09-05T12:34:13.832Z,101067.23
2018-09-05T12:36:43.956Z,101064.34
2018-09-05T12:39:15.096Z,101059.71
2018-09-05T12:41:45.253Z,101060.00
2018-09-05T12:44:15.355Z,101056.20
2018-09-05T12:46:45.645Z,101055.66
2018-09-05T12:49:15.738Z,101055.95
2018-09-05T12:51:45.978Z,101056.49
2018-09-05T12:54:16.123Z,101048.20
2018-09-05T12:56:46.283Z,101049.75
2018-09-05T12:59:16.464Z,101047.03
2018-09-05T13:01:46.555Z,101043.27
2018-09-05T13:04:16.656Z,101043.83
2018-09-05T13:06:46.815Z,101050.22
2018-09-05T13:09:17.012Z,101044.33
2018-09-05T13:11:47.283Z,101038.53
2018-09-05T13:14:17.403Z,101036.59
2018-09-05T13:16:47.650Z,101035.23
2018-09-05T13:19:17.724Z,101032.72
2018-09-05T13:21:47.841Z,101037.03
2018-09-05T13:24:18.101Z,101028.19
2018-09-05T13:26:48.303Z,101028.77
2018-09-05T13:29:18.371Z,101027.77
2018-09-05T13:31:48.596Z,101014.64
2018-09-05T13:34:25.654Z,101019.42
2018-09-05T13:36:55.936Z,101013.80
2018-09-05T13:39:26.366Z,101013.00
2018-09-05T13:41:56.536Z,101009.09
2018-09-05T13:44:26.609Z,101009.39
2018-09-05T13:46:56.763Z,101004.48
2018-09-05T13:49:26.902Z,101009.43
2018-09-05T13:52:02.064Z,101010.02
2018-09-05T13:54:32.853Z,101004.38
2018-09-05T13:57:03.079Z,101003.44
2018-09-05T13:59:33.601Z,101005.33
2018-09-05T14:02:03.753Z,101002.02
2018-09-05T14:04:33.901Z,100998.11
2018-09-05T14:07:03.997Z,100998.34
2018-09-05T14:09:34.116Z,100995.49
2018-09-05T14:12:04.317Z,100996.37
2018-09-05T14:14:34.352Z,100996.30
2018-09-05T14:17:04.632Z,100994.27
2018-09-05T14:19:34.680Z,100983.27
2018-09-05T14:22:04.957Z,100983.06
2018-09-05T14:24:35.114Z,100983.98
2018-09-05T14:27:05.413Z,100986.25
2018-09-05T14:29:35.526Z,100987.91
2018-09-05T14:32:05.673Z,100976.61
2018-09-05T14:34:35.800Z,100974.31
2018-09-05T14:37:05.955Z,100975.59
2018-09-05T14:39:36.063Z,100973.90
2018-09-05T14:42:06.200Z,100969.64
2018-09-05T14:44:36.352Z,100971.85
2018-09-05T14:47:06.482Z,100971.23
2018-09-05T14:49:36.589Z,100966.84
2018-09-05T14:52:06.721Z,100964.09
2018-09-05T14:54:36.825Z,100958.64
2018-09-05T14:57:06.977Z,100957.50
2018-09-05T14:59:37.103Z,100951.69
2018-09-05T15:02:07.287Z,100961.23
2018-09-05T15:04:37.566Z,100955.47
2018-09-05T15:07:08.351Z,100945.61
2018-09-05T15:09:41.536Z,100956.26
2018-09-05T15:12:11.697Z,100953.19
2018-09-05T15:14:41.796Z,100948.43
2018-09-05T15:17:11.971Z,100953.47
2018-09-05T15:19:42.137Z,100948.66
2018-09-05T15:22:12.304Z,100947.85
2018-09-05T15:24:42.463Z,100950.95
2018-09-05T15:27:12.781Z,100948.95
2018-09-05T15:29:42.898Z,100939.63
2018-09-05T15:32:13.102Z,100946.23
2018-09-05T15:34:43.225Z,100941.64
2018-09-05T15:37:13.430Z,100937.70
2018-09-05T15:39:43.520Z,100939.75
2018-09-05T15:42:13.650Z,100935.64
2018-09-05T15:44:43.722Z,100936.44
2018-09-05T15:47:13.878Z,100935.25
2018-09-05T15:49:44.266Z,100933.75
2018-09-05T15:52:14.509Z,100925.55
2018-09-05T15:54:44.620Z,100929.97
2018-09-05T15:57:14.773Z,100927.39
2018-09-05T15:59:44.870Z,100919.79
2018-09-05T16:02:14.984Z,100920.19
2018-09-05T16:04:45.135Z,100921.91
2018-09-05T16:07:15.491Z,100917.65
2018-09-05T16:09:45.533Z,100915.30
2018-09-05T16:12:16.046Z,100912.52
2018-09-05T16:14:46.133Z,100913.44
2018-09-05T16:17:16.209Z,100919.23
2018-09-05T16:19:46.253Z,100909.44
2018-09-05T16:22:16.425Z,100907.02
2018-09-05T16:24:46.534Z,100905.41
2018-09-05T16:27:16.639Z,100900.63
2018-09-05T16:29:46.735Z,100904.19
2018-09-05T16:32:16.882Z,100906.77
2018-09-05T16:34:46.992Z,100903.26
2018-09-05T16:37:17.300Z,100908.55
2018-09-05T16:39:47.537Z,100907.05
2018-09-05T16:42:17.563Z,100905.54
2018-09-05T16:44:47.693Z,100905.53
2018-09-05T16:47:18.096Z,100899.60
2018-09-05T16:49:48.175Z,100892.84
2018-09-05T16:52:18.319Z,100895.89
2018-09-05T16:54:48.512Z,100902.50
2018-09-05T16:57:18.767Z,100899.94
2018-09-05T16:59:48.852Z,100898.92
2018-09-05T17:02:18.933Z,100897.06
2018-09-05T17:04:49.012Z,100905.70
2018-09-05T17:07:19.138Z,100896.89
2018-09-05T17:09:49.247Z,100903.30
2018-09-05T17:12:19.407Z,100907.87
2018-09-05T17:14:49.501Z,100902.63
2018-09-05T17:17:19.637Z,100912.19
2018-09-05T17:19:49.773Z,100912.70
2018-09-05T17:22:19.862Z,100919.08
2018-09-05T17:24:50.013Z,100914.02
2018-09-05T17:27:20.203Z,100915.30
2018-09-05T17:29:50.328Z,100911.20
2018-09-05T17:32:20.428Z,100909.82
2018-09-05T17:34:50.569Z,100908.05
2018-09-05T17:37:20.700Z,100915.40
2018-09-05T17:39:50.781Z,100909.20
2018-09-05T17:42:20.872Z,100911.99
2018-09-05T17:44:50.965Z,100917.53
2018-09-05T17:47:21.117Z,100914.78
2018-09-05T17:49:51.245Z,100920.44
2018-09-05T17:52:21.423Z,100928.24
2018-09-05T17:54:51.485Z,100931.92
2018-09-05T17:57:21.671Z,100922.95
2018-09-05T17:59:51.770Z,100922.27
2018-09-05T18:02:21.945Z,100930.39
2018-09-05T18:04:52.249Z,100926.38
2018-09-05T18:07:22.483Z,100931.98
2018-09-05T18:09:52.566Z,100931.96
2018-09-05T18:12:22.731Z,100927.94
2018-09-05T18:14:52.903Z,100926.96
2018-09-05T18:17:23.094Z,100932.06
2018-09-05T18:19:53.358Z,100927.00
2018-09-05T18:22:23.454Z,100927.45
2018-09-05T18:24:54.060Z,100928.98
2018-09-05T18:27:24.535Z,100927.45
2018-09-05T18:29:54.679Z,100924.77
2018-09-05T18:32:24.752Z,100925.98
2018-09-05T18:34:55.105Z,100923.37
2018-09-05T18:37:25.257Z,100927.12
2018-09-05T18:39:55.335Z,100926.81
2018-09-05T18:42:25.436Z,100926.48
2018-09-05T18:44:55.548Z,100923.17
2018-09-05T18:47:25.770Z,100924.32
2018-09-05T18:49:55.834Z,100922.52
2018-09-05T18:52:25.943Z,100926.03
2018-09-05T18:54:56.134Z,100929.25
2018-09-05T18:57:26.281Z,100929.86
2018-09-05T18:59:56.334Z,100926.97
2018-09-05T19:02:29.508Z,100929.22
2018-09-05T19:04:59.643Z,100924.52
2018-09-05T19:07:29.801Z,100923.81
2018-09-05T19:09:59.958Z,100929.50
2018-09-05T19:12:30.190Z,100927.98
2018-09-05T19:15:00.398Z,100928.72
2018-09-05T19:17:30.599Z,100923.44
2018-09-05T19:20:00.811Z,100919.88
2018-09-05T19:22:31.057Z,100920.25
2018-09-05T19:25:01.237Z,100927.11
2018-09-05T19:27:32.030Z,100920.08
2018-09-05T19:30:02.224Z,100916.67
2018-09-05T19:32:32.387Z,100914.86
2018-09-05T19:35:02.596Z,100921.70
2018-09-05T19:37:32.885Z,100919.70
2018-09-05T19:40:03.023Z,100916.43
2018-09-05T19:42:33.305Z,100911.98
2018-09-05T19:45:03.444Z,100906.71
2018-09-05T19:47:33.637Z,100916.39
2018-09-05T19:50:03.909Z,100918.63
2018-09-05T19:52:34.221Z,100917.75
2018-09-05T19:55:04.418Z,100920.45
2018-09-05T19:57:34.656Z,100926.83
2018-09-05T20:00:04.964Z,100918.31
2018-09-05T20:02:35.239Z,100925.95
2018-09-05T20:05:05.520Z,100923.13
2018-09-05T20:07:35.780Z,100925.14
2018-09-05T20:10:06.038Z,100920.77
2018-09-05T20:12:36.277Z,100922.80
2018-09-05T20:15:06.492Z,100924.84
2018-09-05T20:17:36.677Z,100924.73
2018-09-05T20:20:07.238Z,100922.30
2018-09-05T20:22:37.406Z,100920.77
2018-09-05T20:25:07.708Z,100919.52
2018-09-05T20:27:37.982Z,100914.27
2018-09-05T20:30:08.328Z,100916.45
2018-09-05T20:32:38.546Z,100909.52
2018-09-05T20:35:08.819Z,100912.98
2018-09-05T20:37:38.984Z,100919.48
2018-09-05T20:40:09.248Z,100915.95
2018-09-05T20:42:39.373Z,100911.11
2018-09-05T20:45:09.531Z,100906.81
2018-09-05T20:47:39.592Z,100909.75
2018-09-05T20:50:09.740Z,100915.27
2018-09-05T20:52:39.968Z,100917.86
2018-09-05T20:55:09.603Z,100917.52
2018-09-05T20:57:39.783Z,100912.09
2018-09-05T21:00:09.898Z,100918.36
2018-09-05T21:02:40.216Z,100915.96
2018-09-05T21:05:10.448Z,100918.09
2018-09-05T21:07:40.484Z,100912.91
2018-09-05T21:10:11.496Z,100908.78
2018-09-05T21:12:41.708Z,100911.25
2018-09-05T21:15:11.840Z,100903.28
2018-09-05T21:17:41.973Z,100910.98
2018-09-05T21:20:12.087Z,100906.11
2018-09-05T21:22:42.241Z,100904.14
2018-09-05T21:25:12.361Z,100906.50
2018-09-05T21:27:42.458Z,100907.11
2018-09-05T21:30:12.659Z,100904.04
2018-09-05T21:32:42.747Z,100910.70
2018-09-05T21:35:12.830Z,100900.23
2018-09-05T21:37:42.975Z,100897.67
2018-09-05T21:40:13.074Z,100898.89
2018-09-05T21:42:43.193Z,100898.25
2018-09-05T21:45:13.333Z,100900.02
2018-09-05T21:47:43.441Z,100890.73
2018-09-05T21:50:13.521Z,100890.95
2018-09-05T21:52:43.632Z,100888.41
2018-09-05T21:55:13.753Z,100888.19
2018-09-05T21:57:43.982Z,100887.66
2018-09-05T22:00:14.743Z,100879.50
2018-09-05T22:02:44.969Z,100878.43
2018-09-05T22:05:15.264Z,100879.50
2018-09-05T22:07:45.358Z,100870.89
2018-09-05T22:10:15.440Z,100876.09
2018-09-05T22:12:45.631Z,100876.22
2018-09-05T22:15:15.793Z,100876.17
2018-09-05T22:17:45.846Z,100880.47
2018-09-05T22:20:15.962Z,100881.45
2018-09-05T22:22:46.094Z,100880.13
2018-09-05T22:25:16.981Z,100884.03
2018-09-05T22:27:47.101Z,100881.08
2018-09-05T22:30:17.249Z,100877.67
2018-09-05T22:32:47.383Z,100880.62
2018-09-05T22:35:17.523Z,100886.39
2018-09-05T22:37:47.602Z,100892.88
2018-09-05T22:40:17.640Z,100894.39
2018-09-05T22:43:04.268Z,100896.32
2018-09-05T22:45:51.148Z,100894.16
2018-09-05T22:48:43.069Z,100887.12
2018-09-05T22:54:08.568Z,100892.34
2018-09-05T22:57:01.768Z,100879.07
2018-09-05T23:00:45.556Z,100880.78
2018-09-05T23:04:06.785Z,100881.78
2018-09-05T23:08:54.951Z,100874.72
2018-09-05T23:12:08.817Z,100873.98
2018-09-05T23:15:01.324Z,100868.30
2018-09-05T23:18:19.738Z,100864.27
2018-09-05T23:21:27.266Z,100865.11
2018-09-05T23:24:03.579Z,100856.36
2018-09-05T23:26:33.745Z,100862.20
2018-09-05T23:29:03.892Z,100862.80
2018-09-05T23:31:34.005Z,100853.56
2018-09-05T23:34:04.081Z,100854.16
2018-09-05T23:36:34.208Z,100857.30
2018-09-05T23:39:05.037Z,100856.84
2018-09-05T23:41:35.179Z,100853.07
2018-09-05T23:44:05.339Z,100855.11
2018-09-05T23:46:35.435Z,100855.34
2018-09-05T23:49:05.542Z,100859.14
2018-09-05T23:51:35.631Z,100859.25
2018-09-05T23:54:05.662Z,100871.42
2018-09-05T23:56:35.864Z,100885.16
2018-09-05T23:59:06.573Z,100883.44
